KHGR/HGR METAR and TAF weather

Enter ICAO airport designator
Station Type Date Time Source
KHGR METAR 2020/08/05 14:50 UTC NOAA

KHGR 051450Z 30004KT 10SM FEW030 26/17 A3010


Station Type Date Time Source
KHGR Decoded METAR 2020/08/05 14:50 UTC NOAA

HAGERSTOWN REGIONAL AIRPORT, MD, United States (KHGR) 39-42N 077-44W 224M
Aug 05, 2020 - 10:50 AM EDT / 2020.08.05 1450 UTC
Wind: from the WNW (300 degrees) at 5 MPH (4 KT):0
Visibility: 10 mile(s):0
Sky conditions: mostly clear
Temperature: 78 F (26 C)
Dew Point: 62 F (17 C)
Relative Humidity: 57%
Pressure (altimeter): 30.1 in. Hg (1019 hPa)
ob: KHGR 051450Z 30004KT 10SM FEW030 26/17 A3010
cycle: 15

Station Type Date Time Source
KHGR TAF UTC NOAA

Error!

Example: see airport list